createdAt,value
2022-11-09T00:01:31.280Z,93551.00
2022-11-09T00:03:02.883Z,93548.31
2022-11-09T00:04:34.749Z,93545.91
2022-11-09T00:06:06.378Z,93546.44
2022-11-09T00:07:37.914Z,93547.25
2022-11-09T00:09:09.901Z,93549.41
2022-11-09T00:10:41.500Z,93548.31
2022-11-09T00:12:13.111Z,93546.72
2022-11-09T00:13:44.966Z,93553.97
2022-11-09T00:15:16.494Z,93546.44
2022-11-09T00:16:47.986Z,93551.00
2022-11-09T00:18:20.151Z,93544.59
2022-11-09T00:19:51.648Z,93544.09
2022-11-09T00:21:23.600Z,93545.41
2022-11-09T00:22:55.245Z,93542.44
2022-11-09T00:24:26.733Z,93549.13
2022-11-09T00:26:05.080Z,93544.03
2022-11-09T00:27:36.573Z,93548.56
2022-11-09T00:29:08.135Z,93540.53
2022-11-09T00:30:40.262Z,93538.06
2022-11-09T00:32:11.950Z,93547.47
2022-11-09T00:33:43.590Z,93543.69
2022-11-09T00:35:15.175Z,93547.44
2022-11-09T00:36:46.778Z,93539.38
2022-11-09T00:38:18.266Z,93533.44
2022-11-09T00:39:49.942Z,93531.00
2022-11-09T00:41:21.626Z,93530.72
2022-11-09T00:42:53.374Z,93534.47
2022-11-09T00:44:24.964Z,93531.50
2022-11-09T00:45:56.799Z,93538.75
2022-11-09T00:47:28.497Z,93538.50
2022-11-09T00:49:00.315Z,93534.50
2022-11-09T00:50:31.897Z,93537.78
2022-11-09T00:52:03.604Z,93538.63
2022-11-09T00:53:35.237Z,93534.09
2022-11-09T00:55:06.983Z,93535.75
2022-11-09T00:56:38.643Z,93536.38
2022-11-09T00:58:10.178Z,93533.22
2022-11-09T00:59:41.714Z,93542.38
2022-11-09T01:01:14.310Z,93539.47
2022-11-09T01:02:45.942Z,93546.47
2022-11-09T01:04:17.462Z,93538.69
2022-11-09T01:05:49.098Z,93545.13
2022-11-09T01:07:20.643Z,93542.19
2022-11-09T01:08:52.426Z,93548.88
2022-11-09T01:10:24.559Z,93549.47
2022-11-09T01:11:56.212Z,93546.53
2022-11-09T01:13:27.867Z,93535.28
2022-11-09T01:14:59.442Z,93538.25
2022-11-09T01:16:31.167Z,93548.16
2022-11-09T01:18:02.711Z,93547.09
2022-11-09T01:19:34.324Z,93538.78
2022-11-09T01:21:06.587Z,93540.13
2022-11-09T01:22:38.195Z,93542.00
2022-11-09T01:24:10.424Z,93543.06
2022-11-09T01:25:42.082Z,93536.63
2022-11-09T01:27:13.822Z,93534.75
2022-11-09T01:28:45.380Z,93528.31
2022-11-09T01:30:17.106Z,93533.16
2022-11-09T01:31:49.101Z,93538.25
2022-11-09T01:33:21.276Z,93524.84
2022-11-09T01:34:53.700Z,93536.38
2022-11-09T01:36:25.361Z,93529.69
2022-11-09T01:37:56.988Z,93529.69
2022-11-09T01:39:28.699Z,93535.09
2022-11-09T01:41:00.320Z,93535.91
2022-11-09T01:42:32.321Z,93531.91
2022-11-09T01:44:04.975Z,93529.81
2022-11-09T01:45:36.666Z,93524.53
2022-11-09T01:47:12.586Z,93527.75
2022-11-09T01:48:48.646Z,93531.75
2022-11-09T01:50:21.744Z,93531.81
2022-11-09T01:51:55.380Z,93540.13
2022-11-09T01:53:28.668Z,93534.25
2022-11-09T01:55:01.192Z,93534.25
2022-11-09T01:56:33.264Z,93533.75
2022-11-09T01:58:06.756Z,93528.16
2022-11-09T01:59:39.361Z,93530.34
2022-11-09T02:01:11.661Z,93529.31
2022-11-09T02:02:44.455Z,93531.72
2022-11-09T02:04:20.668Z,93529.84
2022-11-09T02:05:52.339Z,93537.88
2022-11-09T02:07:24.599Z,93530.41
2022-11-09T02:08:56.903Z,93526.38
2022-11-09T02:10:31.514Z,93535.53
2022-11-09T02:12:03.313Z,93535.84
2022-11-09T02:13:35.146Z,93529.69
2022-11-09T02:15:07.607Z,93535.56
2022-11-09T02:16:39.199Z,93531.84
2022-11-09T02:18:10.873Z,93531.06
2022-11-09T02:19:42.520Z,93541.50
2022-11-09T02:21:14.106Z,93537.72
2022-11-09T02:22:45.666Z,93536.66
2022-11-09T02:24:17.939Z,93540.91
2022-11-09T02:26:04.288Z,93541.50
2022-11-09T02:27:36.120Z,93539.31
2022-11-09T02:29:08.217Z,93537.44
2022-11-09T02:30:40.088Z,93536.13
2022-11-09T02:32:19.350Z,93540.69
2022-11-09T02:33:50.910Z,93540.97
2022-11-09T02:35:22.591Z,93543.09
2022-11-09T02:36:54.265Z,93535.91
2022-11-09T02:38:25.850Z,93532.97
2022-11-09T02:39:58.025Z,93538.34
2022-11-09T02:41:30.225Z,93536.44
2022-11-09T02:43:01.764Z,93533.75
2022-11-09T02:44:37.124Z,93540.97
2022-11-09T02:46:08.701Z,93531.88
2022-11-09T02:47:40.715Z,93533.53
2022-11-09T02:49:12.742Z,93533.53
2022-11-09T02:50:45.032Z,93540.22
2022-11-09T02:52:17.493Z,93543.16
2022-11-09T02:53:49.265Z,93534.84
2022-11-09T02:55:20.889Z,93545.03
2022-11-09T02:56:52.490Z,93543.16
2022-11-09T02:58:24.115Z,93548.00
2022-11-09T02:59:55.809Z,93549.06
2022-11-09T03:01:27.497Z,93544.25
2022-11-09T03:02:59.153Z,93543.19
2022-11-09T03:04:30.707Z,93543.44
2022-11-09T03:06:02.469Z,93542.38
2022-11-09T03:07:34.042Z,93543.19
2022-11-09T03:09:06.555Z,93544.25
2022-11-09T03:10:38.685Z,93546.38
2022-11-09T03:12:29.243Z,93545.06
2022-11-09T03:14:01.332Z,93552.00
2022-11-09T03:15:33.418Z,93558.16
2022-11-09T03:17:05.056Z,93553.06
2022-11-09T03:18:37.332Z,93554.94
2022-11-09T03:20:09.309Z,93559.72
2022-11-09T03:21:41.722Z,93554.94
2022-11-09T03:23:13.519Z,93554.94
2022-11-09T03:24:45.291Z,93551.19
2022-11-09T03:26:16.883Z,93555.72
2022-11-09T03:27:48.418Z,93551.19
2022-11-09T03:29:20.035Z,93547.19
2022-11-09T03:30:51.920Z,93554.66
2022-11-09T03:32:23.679Z,93549.59
2022-11-09T03:33:55.390Z,93560.28
2022-11-09T03:35:27.361Z,93552.25
2022-11-09T03:36:59.055Z,93558.16
2022-11-09T03:38:30.898Z,93563.50
2022-11-09T03:40:02.487Z,93560.81
2022-11-09T03:41:35.536Z,93565.34
2022-11-09T03:43:07.293Z,93564.56
2022-11-09T03:44:39.353Z,93570.16
2022-11-09T03:46:13.181Z,93567.75
2022-11-09T03:47:45.145Z,93566.94
2022-11-09T03:49:17.052Z,93573.63
2022-11-09T03:50:49.133Z,93568.84
2022-11-09T03:52:21.191Z,93568.56
2022-11-09T03:53:53.077Z,93566.41
2022-11-09T03:55:24.791Z,93567.22
2022-11-09T03:56:56.364Z,93578.44
2022-11-09T03:58:28.489Z,93575.75
2022-11-09T04:00:00.113Z,93570.72
2022-11-09T04:01:31.835Z,93576.81
2022-11-09T04:03:03.473Z,93577.38
2022-11-09T04:04:35.012Z,93578.19
2022-11-09T04:06:06.593Z,93580.84
2022-11-09T04:07:38.550Z,93583.25
2022-11-09T04:09:10.526Z,93573.91
2022-11-09T04:10:42.154Z,93579.25
2022-11-09T04:12:13.923Z,93580.03
2022-11-09T04:13:45.582Z,93584.06
2022-11-09T04:15:17.329Z,93582.72
2022-11-09T04:16:49.018Z,93580.88
2022-11-09T04:18:20.993Z,93583.53
2022-11-09T04:19:53.195Z,93578.19
2022-11-09T04:21:25.170Z,93579.25
2022-11-09T04:22:57.297Z,93588.06
2022-11-09T04:24:28.929Z,93584.88
2022-11-09T04:26:00.470Z,93583.00
2022-11-09T04:27:32.105Z,93593.69
2022-11-09T04:29:03.854Z,93582.44
2022-11-09T04:30:35.824Z,93584.34
2022-11-09T04:32:07.519Z,93581.41
2022-11-09T04:33:39.112Z,93589.69
2022-11-09T04:35:10.692Z,93586.19
2022-11-09T04:36:42.279Z,93581.13
2022-11-09T04:38:14.364Z,93586.47
2022-11-09T04:39:46.026Z,93595.53
2022-11-09T04:41:17.942Z,93592.59
2022-11-09T04:42:49.571Z,93590.19
2022-11-09T04:44:21.158Z,93588.06
2022-11-09T04:45:53.538Z,93588.31
2022-11-09T04:47:25.416Z,93587.78
2022-11-09T04:48:57.054Z,93585.91
2022-11-09T04:50:28.717Z,93584.59
2022-11-09T04:52:00.432Z,93590.72
2022-11-09T04:53:32.072Z,93585.63
2022-11-09T04:55:03.982Z,93579.47
2022-11-09T04:56:35.675Z,93588.28
2022-11-09T04:58:07.393Z,93588.56
2022-11-09T04:59:38.923Z,93586.44
2022-11-09T05:01:11.413Z,93590.44
2022-11-09T05:02:43.029Z,93586.69
2022-11-09T05:04:14.731Z,93589.63
2022-11-09T05:05:48.484Z,93592.56
2022-11-09T05:07:20.321Z,93596.28
2022-11-09T05:08:54.955Z,93592.81
2022-11-09T05:10:26.595Z,93593.34
2022-11-09T05:11:58.276Z,93589.88
2022-11-09T05:13:29.785Z,93592.00
2022-11-09T05:15:01.329Z,93598.41
2022-11-09T05:16:32.821Z,93593.34
2022-11-09T05:18:04.622Z,93597.88
2022-11-09T05:19:36.396Z,93593.88
2022-11-09T05:21:08.038Z,93602.44
2022-11-09T05:22:58.750Z,93602.69
2022-11-09T05:24:30.342Z,93603.22
2022-11-09T05:26:01.962Z,93602.44
2022-11-09T05:27:33.598Z,93596.28
2022-11-09T05:29:06.292Z,93602.44
2022-11-09T05:30:37.902Z,93604.31
2022-11-09T05:32:09.714Z,93605.88
2022-11-09T05:33:41.356Z,93605.09
2022-11-09T05:35:12.999Z,93605.38
2022-11-09T05:36:44.658Z,93602.66
2022-11-09T05:38:16.301Z,93602.66
2022-11-09T05:39:48.016Z,93609.59
2022-11-09T05:41:19.821Z,93610.41
2022-11-09T05:42:51.456Z,93608.25
2022-11-09T05:44:23.061Z,93614.38
2022-11-09T05:45:54.770Z,93608.75
2022-11-09T05:47:26.266Z,93606.63
2022-11-09T05:48:57.882Z,93610.09
2022-11-09T05:50:29.395Z,93602.91
2022-11-09T05:52:01.018Z,93603.72
2022-11-09T05:53:32.612Z,93615.44
2022-11-09T05:55:04.607Z,93616.53
2022-11-09T05:56:36.250Z,93612.00
2022-11-09T05:58:08.012Z,93618.69
2022-11-09T05:59:39.659Z,93627.22
2022-11-09T06:01:12.212Z,93624.84
2022-11-09T06:02:43.885Z,93621.63
2022-11-09T06:04:15.442Z,93631.22
2022-11-09T06:05:47.769Z,93626.41
2022-11-09T06:07:19.485Z,93633.63
2022-11-09T06:08:51.143Z,93632.56
2022-11-09T06:10:22.899Z,93631.19
2022-11-09T06:11:54.488Z,93631.72
2022-11-09T06:13:25.997Z,93637.59
2022-11-09T06:14:57.723Z,93629.31
2022-11-09T06:16:29.334Z,93631.47
2022-11-09T06:18:00.871Z,93633.91
2022-11-09T06:19:32.566Z,93637.91
2022-11-09T06:21:04.724Z,93635.25
2022-11-09T06:22:36.262Z,93632.31
2022-11-09T06:24:08.068Z,93633.41
2022-11-09T06:25:39.641Z,93642.78
2022-11-09T06:27:11.207Z,93650.53
2022-11-09T06:28:42.822Z,93644.16
2022-11-09T06:30:14.515Z,93637.72
2022-11-09T06:31:46.347Z,93641.75
2022-11-09T06:33:18.292Z,93648.19
2022-11-09T06:34:50.292Z,93642.06
2022-11-09T06:36:22.065Z,93648.19
2022-11-09T06:37:57.510Z,93649.25
2022-11-09T06:39:28.996Z,93641.53
2022-11-09T06:41:00.713Z,93645.81
2022-11-09T06:42:32.363Z,93639.41
2022-11-09T06:44:05.609Z,93639.41
2022-11-09T06:45:37.149Z,93641.00
2022-11-09T06:47:08.876Z,93644.22
2022-11-09T06:48:40.559Z,93645.56
2022-11-09T06:50:12.758Z,93645.81
2022-11-09T06:51:44.273Z,93644.19
2022-11-09T06:53:16.143Z,93645.28
2022-11-09T06:54:47.648Z,93643.72
2022-11-09T06:56:19.231Z,93640.47
2022-11-09T06:57:50.858Z,93645.28
2022-11-09T06:59:22.625Z,93646.09
2022-11-09T07:00:54.311Z,93649.56
2022-11-09T07:02:25.987Z,93646.91
2022-11-09T07:03:57.577Z,93650.09
2022-11-09T07:05:29.304Z,93649.81
2022-11-09T07:07:01.131Z,93650.91
2022-11-09T07:08:33.229Z,93654.38
2022-11-09T07:10:05.024Z,93647.13
2022-11-09T07:11:36.807Z,93645.78
2022-11-09T07:13:08.414Z,93647.66
2022-11-09T07:14:40.053Z,93649.00
2022-11-09T07:16:12.939Z,93648.16
2022-11-09T07:17:44.610Z,93650.31
2022-11-09T07:19:16.226Z,93660.75
2022-11-09T07:20:47.781Z,93650.56
2022-11-09T07:22:20.131Z,93645.72
2022-11-09T07:23:52.007Z,93652.69
2022-11-09T07:25:23.696Z,93656.97
2022-11-09T07:26:55.313Z,93646.00
2022-11-09T07:28:27.027Z,93652.41
2022-11-09T07:29:58.549Z,93653.75
2022-11-09T07:31:31.602Z,93654.78
2022-11-09T07:33:10.700Z,93647.03
2022-11-09T07:34:42.442Z,93651.81
2022-11-09T07:36:19.765Z,93647.00
2022-11-09T07:37:53.075Z,93650.44
2022-11-09T07:39:24.637Z,93647.47
2022-11-09T07:41:00.628Z,93650.97
2022-11-09T08:00:13.815Z,93653.72
2022-11-09T08:01:45.520Z,93657.69
2022-11-09T08:03:18.517Z,93653.38
2022-11-09T08:04:50.386Z,93651.50
2022-11-09T08:06:22.677Z,93663.25
2022-11-09T08:07:54.874Z,93664.03
2022-11-09T08:09:26.512Z,93652.47
2022-11-09T08:10:58.380Z,93656.75
2022-11-09T08:12:35.784Z,93660.19
2022-11-09T08:14:08.658Z,93659.56
2022-11-09T08:15:40.720Z,93663.00
2022-11-09T08:17:12.436Z,93666.22
2022-11-09T08:18:44.092Z,93661.38
2022-11-09T08:20:16.265Z,93662.66
2022-11-09T08:21:47.790Z,93659.91
2022-11-09T08:23:21.173Z,93661.19
2022-11-09T08:24:53.291Z,93658.44
2022-11-09T08:26:24.899Z,93656.19
2022-11-09T08:27:57.014Z,93658.50
2022-11-09T08:29:28.634Z,93660.28
2022-11-09T08:31:01.095Z,93658.25
2022-11-09T08:32:32.732Z,93657.34
2022-11-09T08:34:04.274Z,93654.31
2022-11-09T08:35:35.929Z,93650.78
2022-11-09T08:37:07.667Z,93653.34
2022-11-09T08:38:39.265Z,93654.31
2022-11-09T08:40:10.912Z,93652.38
2022-11-09T08:41:42.486Z,93653.13
2022-11-09T08:43:14.574Z,93646.91
2022-11-09T08:44:46.236Z,93656.44
2022-11-09T08:46:17.898Z,93651.84
2022-11-09T08:47:51.394Z,93654.97
2022-11-09T08:49:23.068Z,93654.34
2022-11-09T08:50:55.161Z,93661.31
2022-11-09T08:52:26.994Z,93651.38
2022-11-09T08:53:58.676Z,93653.53
2022-11-09T08:55:30.328Z,93656.16
2022-11-09T08:57:04.759Z,93654.19
2022-11-09T08:58:36.385Z,93652.72
2022-11-09T09:00:08.424Z,93653.81
2022-11-09T09:01:40.360Z,93653.88
2022-11-09T09:03:11.934Z,93657.81
2022-11-09T09:04:43.673Z,93660.13
2022-11-09T09:06:15.308Z,93657.59
2022-11-09T09:07:46.905Z,93657.50
2022-11-09T09:09:18.616Z,93659.63
2022-11-09T09:10:50.238Z,93659.47
2022-11-09T09:12:21.798Z,93652.84
2022-11-09T09:13:53.353Z,93656.59
2022-11-09T09:15:25.306Z,93659.34
2022-11-09T09:16:57.040Z,93658.28
2022-11-09T09:18:28.735Z,93648.63
2022-11-09T09:20:00.345Z,93656.13
2022-11-09T09:21:32.044Z,93652.38
2022-11-09T09:23:03.554Z,93652.09
2022-11-09T09:24:35.612Z,93652.88
2022-11-09T09:26:07.266Z,93643.97
2022-11-09T09:27:39.134Z,93646.56
2022-11-09T09:29:11.962Z,93654.31
2022-11-09T09:30:43.601Z,93651.28
2022-11-09T09:32:15.269Z,93651.25
2022-11-09T09:33:47.759Z,93647.41
2022-11-09T09:35:19.283Z,93651.66
2022-11-09T09:36:52.767Z,93646.69
2022-11-09T09:38:25.094Z,93650.91
2022-11-09T09:40:04.251Z,93641.09
2022-11-09T09:41:38.586Z,93639.56
2022-11-09T09:43:15.100Z,93644.88
2022-11-09T09:45:04.946Z,93641.25
2022-11-09T09:46:38.440Z,93636.66
2022-11-09T09:48:10.351Z,93630.94
2022-11-09T09:50:08.366Z,93640.66
2022-11-09T09:51:45.790Z,93632.53
2022-11-09T09:53:24.651Z,93627.31
2022-11-09T09:55:01.589Z,93627.34
2022-11-09T09:56:38.735Z,93626.59
2022-11-09T09:58:12.046Z,93622.47
2022-11-09T09:59:44.871Z,93624.56
2022-11-09T10:01:18.282Z,93623.78
2022-11-09T10:02:51.028Z,93629.19
2022-11-09T10:04:23.258Z,93625.38
2022-11-09T10:06:10.294Z,93620.56
2022-11-09T10:07:52.881Z,93617.44
2022-11-09T10:09:42.949Z,93614.41
2022-11-09T10:11:29.826Z,93608.81
2022-11-09T10:13:21.743Z,93616.31
2022-11-09T10:15:02.191Z,93615.56
2022-11-09T10:16:45.665Z,93605.19
2022-11-09T10:18:18.251Z,93607.56
2022-11-09T10:19:58.234Z,93607.56
2022-11-09T10:21:29.808Z,93597.69
2022-11-09T10:23:16.433Z,93608.50
2022-11-09T10:25:18.568Z,93599.03
2022-11-09T10:26:48.883Z,93596.03
2022-11-09T10:28:20.772Z,93597.31
2022-11-09T10:29:52.518Z,93594.88
2022-11-09T10:31:25.383Z,93595.19
2022-11-09T10:32:58.015Z,93594.03
2022-11-09T10:34:30.384Z,93592.88
2022-11-09T10:36:37.586Z,93599.22
2022-11-09T10:38:09.767Z,93585.13
2022-11-09T10:40:19.673Z,93591.63
2022-11-09T10:41:52.323Z,93592.56
2022-11-09T10:43:23.927Z,93578.41
2022-11-09T10:44:55.578Z,93581.69
2022-11-09T10:46:27.228Z,93588.56
2022-11-09T10:47:59.271Z,93584.66
2022-11-09T10:49:31.202Z,93574.31
2022-11-09T10:51:03.144Z,93584.13
2022-11-09T10:52:45.883Z,93573.03
2022-11-09T10:54:19.692Z,93582.53
2022-11-09T10:55:52.210Z,93568.53
2022-11-09T10:57:24.249Z,93567.78
2022-11-09T10:58:56.080Z,93561.09
2022-11-09T11:00:27.937Z,93569.09
2022-11-09T11:02:02.341Z,93559.38
2022-11-09T11:03:35.729Z,93562.09
2022-11-09T11:05:07.519Z,93561.63
2022-11-09T11:06:39.603Z,93561.63
2022-11-09T11:08:21.738Z,93565.03
2022-11-09T11:09:53.359Z,93553.56
2022-11-09T11:11:33.716Z,93559.66
2022-11-09T11:13:06.965Z,93558.50
2022-11-09T11:14:42.029Z,93553.72
2022-11-09T11:16:33.947Z,93552.59
2022-11-09T11:18:06.144Z,93554.06
2022-11-09T11:19:45.265Z,93546.56
2022-11-09T11:21:19.421Z,93547.38
2022-11-09T11:22:51.310Z,93546.66
2022-11-09T11:24:23.065Z,93548.78
2022-11-09T11:25:55.089Z,93541.03
2022-11-09T11:27:45.349Z,93538.28
2022-11-09T11:29:37.483Z,93534.91
2022-11-09T11:31:13.349Z,93534.34
2022-11-09T11:32:50.205Z,93537.41
2022-11-09T11:34:45.636Z,93533.63
2022-11-09T11:36:23.567Z,93525.81
2022-11-09T11:37:59.943Z,93532.63
2022-11-09T11:39:34.808Z,93524.50
2022-11-09T11:41:12.476Z,93529.56
2022-11-09T11:42:53.743Z,93517.50
2022-11-09T11:44:30.739Z,93524.72
2022-11-09T11:46:05.303Z,93519.75
2022-11-09T11:47:40.662Z,93520.44
2022-11-09T11:49:30.479Z,93511.22
2022-11-09T11:51:02.059Z,93513.47
2022-11-09T11:52:42.535Z,93513.16
2022-11-09T11:54:23.086Z,93508.50
2022-11-09T11:56:21.354Z,93504.91
2022-11-09T11:58:11.721Z,93510.03
2022-11-09T11:59:58.416Z,93508.19
2022-11-09T12:01:30.014Z,93504.75
2022-11-09T12:03:20.725Z,93508.28
2022-11-09T12:05:19.110Z,93512.25
2022-11-09T12:06:53.558Z,93509.06
2022-11-09T12:08:43.880Z,93505.44
2022-11-09T12:10:21.903Z,93503.59
2022-11-09T12:12:12.524Z,93505.47
2022-11-09T12:13:53.630Z,93502.47
2022-11-09T12:15:30.915Z,93502.09
2022-11-09T12:17:17.089Z,93495.56
2022-11-09T12:18:58.197Z,93498.94
2022-11-09T12:20:38.752Z,93498.13
2022-11-09T12:22:18.265Z,93498.88
2022-11-09T12:24:16.071Z,93493.22
2022-11-09T12:25:59.789Z,93497.09
2022-11-09T12:27:37.623Z,93499.00
2022-11-09T12:29:16.190Z,93496.44
2022-11-09T12:30:53.367Z,93487.47
2022-11-09T12:32:43.570Z,93487.63
2022-11-09T12:34:20.522Z,93485.81
2022-11-09T12:35:55.339Z,93484.38
2022-11-09T12:37:28.322Z,93494.31
2022-11-09T12:39:02.175Z,93488.13
2022-11-09T12:40:35.330Z,93489.47
2022-11-09T12:42:09.813Z,93484.72
2022-11-09T12:43:45.606Z,93488.47
2022-11-09T12:45:25.414Z,93476.16
2022-11-09T12:47:07.581Z,93492.66
2022-11-09T12:48:39.375Z,93489.44
2022-11-09T12:50:14.045Z,93485.59
2022-11-09T12:51:45.679Z,93487.19
2022-11-09T12:53:17.396Z,93478.19
2022-11-09T12:54:49.310Z,93484.31
2022-11-09T12:56:22.758Z,93484.31
2022-11-09T12:57:59.645Z,93483.56
2022-11-09T12:59:36.165Z,93470.91
2022-11-09T13:01:10.991Z,93479.56
2022-11-09T13:02:51.979Z,93474.59
2022-11-09T13:04:23.918Z,93475.09
2022-11-09T13:06:14.375Z,93483.59
2022-11-09T13:07:52.457Z,93483.13
2022-11-09T13:09:24.300Z,93481.94
2022-11-09T13:11:08.666Z,93476.31
2022-11-09T13:12:40.786Z,93475.53
2022-11-09T13:14:31.281Z,93474.53
2022-11-09T13:16:04.005Z,93475.22
2022-11-09T13:17:36.903Z,93474.78
2022-11-09T13:19:08.766Z,93472.63
2022-11-09T13:20:54.485Z,93475.53
2022-11-09T13:22:27.286Z,93473.28
2022-11-09T13:24:02.298Z,93474.88
2022-11-09T13:25:44.498Z,93467.38
2022-11-09T13:27:39.359Z,93474.31
2022-11-09T13:29:24.274Z,93468.56
2022-11-09T13:30:57.619Z,93462.13
2022-11-09T13:32:29.619Z,93466.38
2022-11-09T13:34:21.223Z,93462.00
2022-11-09T13:35:53.287Z,93461.50
2022-11-09T13:37:37.654Z,93467.34
2022-11-09T13:39:24.236Z,93468.69
2022-11-09T13:40:56.434Z,93464.97
2022-11-09T13:42:28.919Z,93465.88
2022-11-09T13:44:18.932Z,93464.97
2022-11-09T13:45:50.533Z,93469.66
2022-11-09T13:47:22.876Z,93465.75
2022-11-09T13:48:54.664Z,93462.34
2022-11-09T13:50:27.210Z,93464.19
2022-11-09T13:51:58.933Z,93465.88
2022-11-09T13:53:36.686Z,93469.28
2022-11-09T13:55:13.673Z,93468.63
2022-11-09T13:56:45.331Z,93466.00
2022-11-09T13:58:21.644Z,93464.44
2022-11-09T13:59:53.947Z,93466.66
2022-11-09T14:01:37.014Z,93460.31
2022-11-09T14:03:17.356Z,93466.03
2022-11-09T14:04:48.918Z,93457.00
2022-11-09T14:06:20.466Z,93462.16
2022-11-09T14:07:52.883Z,93454.38
2022-11-09T14:09:24.713Z,93463.78
2022-11-09T14:11:19.692Z,93461.31
2022-11-09T14:13:03.314Z,93460.69
2022-11-09T14:14:34.980Z,93465.75
2022-11-09T14:16:13.783Z,93461.53
2022-11-09T14:17:52.375Z,93456.22
2022-11-09T14:19:42.518Z,93453.50
2022-11-09T14:21:14.522Z,93462.41
2022-11-09T14:22:46.048Z,93461.25
2022-11-09T14:24:17.600Z,93460.09
2022-11-09T14:25:49.601Z,93455.81
2022-11-09T14:27:21.407Z,93457.19
2022-11-09T14:28:53.084Z,93456.88
2022-11-09T14:30:25.956Z,93465.66
2022-11-09T14:31:57.566Z,93462.63
2022-11-09T14:33:29.116Z,93463.66
2022-11-09T14:35:19.798Z,93467.84
2022-11-09T14:36:51.403Z,93464.69
2022-11-09T14:38:24.675Z,93464.59
2022-11-09T14:39:57.727Z,93472.66
2022-11-09T14:41:29.573Z,93466.56
2022-11-09T14:43:16.229Z,93468.72
2022-11-09T14:44:47.848Z,93467.72
2022-11-09T14:46:20.550Z,93471.38
2022-11-09T14:47:53.076Z,93474.75
2022-11-09T14:49:24.735Z,93468.84
2022-11-09T14:50:57.611Z,93470.22
2022-11-09T14:52:32.054Z,93475.56
2022-11-09T14:54:06.039Z,93476.00
2022-11-09T14:55:39.950Z,93478.84
2022-11-09T14:57:12.839Z,93472.03
2022-11-09T14:58:44.553Z,93476.47
2022-11-09T15:00:22.033Z,93475.09
2022-11-09T15:01:57.262Z,93482.91
2022-11-09T15:03:29.820Z,93481.75
2022-11-09T15:05:02.747Z,93480.16
2022-11-09T15:06:34.498Z,93480.75
2022-11-09T15:08:11.022Z,93484.22
2022-11-09T15:09:43.305Z,93481.78
2022-11-09T15:11:15.142Z,93489.69
2022-11-09T15:12:50.155Z,93488.63
2022-11-09T15:14:22.318Z,93484.88
2022-11-09T15:15:54.341Z,93483.03
2022-11-09T15:17:27.861Z,93484.69
2022-11-09T15:18:59.507Z,93485.06
2022-11-09T15:20:32.485Z,93486.56
2022-11-09T15:22:04.088Z,93487.28
2022-11-09T15:23:37.570Z,93483.69
2022-11-09T15:25:21.041Z,93482.34
2022-11-09T15:26:53.169Z,93482.41
2022-11-09T15:28:28.168Z,93480.06
2022-11-09T15:29:59.694Z,93487.78
2022-11-09T15:31:31.303Z,93476.66
2022-11-09T15:33:18.214Z,93473.50
2022-11-09T15:34:54.253Z,93475.91
2022-11-09T15:36:25.944Z,93482.50
2022-11-09T15:37:57.666Z,93484.44
2022-11-09T15:39:29.693Z,93480.63
2022-11-09T15:41:01.790Z,93493.22
2022-11-09T15:42:33.391Z,93488.75
2022-11-09T15:44:05.482Z,93488.28
2022-11-09T15:45:37.042Z,93490.94
2022-11-09T15:47:19.791Z,93491.41
2022-11-09T15:48:52.011Z,93490.28
2022-11-09T15:50:24.464Z,93491.69
2022-11-09T15:51:56.195Z,93490.72
2022-11-09T15:53:28.204Z,93491.38
2022-11-09T15:54:59.796Z,93494.41
2022-11-09T15:56:31.369Z,93491.22
2022-11-09T15:58:03.032Z,93497.22
2022-11-09T15:59:34.719Z,93488.63
2022-11-09T16:01:06.452Z,93496.91
2022-11-09T16:02:38.202Z,93489.25
2022-11-09T16:04:09.802Z,93493.53
2022-11-09T16:05:41.452Z,93498.75
2022-11-09T16:07:16.799Z,93492.06
2022-11-09T16:08:49.135Z,93491.59
2022-11-09T16:10:23.602Z,93493.00
2022-11-09T16:11:55.926Z,93495.69
2022-11-09T16:13:27.633Z,93493.09
2022-11-09T16:14:59.147Z,93493.25
2022-11-09T16:16:30.722Z,93501.38
2022-11-09T16:18:02.510Z,93501.66
2022-11-09T16:19:34.354Z,93498.78
2022-11-09T16:21:12.191Z,93507.03
2022-11-09T16:22:43.857Z,93515.75
2022-11-09T16:24:16.937Z,93515.06
2022-11-09T16:25:48.968Z,93517.63
2022-11-09T16:27:48.421Z,93516.00
2022-11-09T16:29:12.769Z,93523.59
2022-11-09T16:30:46.801Z,93520.25
2022-11-09T16:32:18.953Z,93509.84
2022-11-09T16:33:50.476Z,93508.22
2022-11-09T16:35:27.046Z,93515.16
2022-11-09T16:37:00.142Z,93521.78
2022-11-09T16:38:32.443Z,93513.91
2022-11-09T16:40:05.880Z,93523.25
2022-11-09T16:41:41.192Z,93520.06
2022-11-09T16:43:12.815Z,93521.25
2022-11-09T16:44:45.266Z,93523.47
2022-11-09T16:46:24.128Z,93517.28
2022-11-09T16:47:58.688Z,93516.97
2022-11-09T16:49:31.736Z,93521.91
2022-11-09T16:51:03.821Z,93522.34
2022-11-09T16:52:35.686Z,93520.16
2022-11-09T16:54:07.411Z,93518.56
2022-11-09T16:55:39.119Z,93519.50
2022-11-09T16:57:10.750Z,93523.09
2022-11-09T16:58:42.676Z,93519.91
2022-11-09T17:00:15.800Z,93523.91
2022-11-09T17:01:56.040Z,93521.91
2022-11-09T17:03:27.759Z,93514.75
2022-11-09T17:04:59.372Z,93525.44
2022-11-09T17:06:32.844Z,93522.91
2022-11-09T17:08:04.562Z,93523.91
2022-11-09T17:09:36.266Z,93524.22
2022-11-09T17:11:11.231Z,93529.63
2022-11-09T17:12:42.886Z,93525.94
2022-11-09T17:14:14.668Z,93522.16
2022-11-09T17:15:47.315Z,93523.13
2022-11-09T17:17:22.607Z,93529.00
2022-11-09T17:18:55.215Z,93524.22
2022-11-09T17:20:26.938Z,93524.22
2022-11-09T17:21:59.580Z,93524.72
2022-11-09T17:23:31.744Z,93525.81
2022-11-09T17:25:04.142Z,93525.22
2022-11-09T17:26:37.760Z,93526.81
2022-11-09T17:28:09.485Z,93533.81
2022-11-09T17:29:41.026Z,93541.41
2022-11-09T17:31:14.059Z,93539.19
2022-11-09T17:32:48.304Z,93536.00
2022-11-09T17:34:19.814Z,93542.31
2022-11-09T17:36:01.014Z,93533.84
2022-11-09T17:37:33.819Z,93539.66
2022-11-09T17:39:05.780Z,93542.56
2022-11-09T17:40:37.411Z,93545.69
2022-11-09T17:42:08.935Z,93549.28
2022-11-09T17:43:41.755Z,93546.44
2022-11-09T17:45:14.270Z,93547.22
2022-11-09T17:46:46.077Z,93545.44
2022-11-09T17:48:18.145Z,93554.81
2022-11-09T17:49:50.016Z,93558.50
2022-11-09T17:51:22.088Z,93553.78
2022-11-09T17:52:54.213Z,93554.28
2022-11-09T17:54:25.756Z,93561.59
2022-11-09T17:55:57.393Z,93560.41
2022-11-09T17:57:28.950Z,93563.00
2022-11-09T17:59:00.559Z,93563.44
2022-11-09T18:00:32.689Z,93556.53
2022-11-09T18:02:04.335Z,93560.16
2022-11-09T18:03:37.042Z,93564.53
2022-11-09T18:05:09.395Z,93557.44
2022-11-09T18:06:41.406Z,93561.91
2022-11-09T18:08:15.196Z,93553.75
2022-11-09T18:09:46.812Z,93557.72
2022-11-09T18:11:18.336Z,93557.91
2022-11-09T18:12:50.206Z,93566.69
2022-11-09T18:14:21.828Z,93563.00
2022-11-09T18:15:53.722Z,93560.09
2022-11-09T18:17:25.401Z,93560.38
2022-11-09T18:19:01.221Z,93558.78
2022-11-09T18:20:32.756Z,93569.66
2022-11-09T18:22:07.552Z,93563.25
2022-11-09T18:23:43.606Z,93567.84
2022-11-09T18:25:15.338Z,93569.44
2022-11-09T18:26:46.983Z,93569.66
2022-11-09T18:28:18.775Z,93568.25
2022-11-09T18:29:50.666Z,93576.03
2022-11-09T18:31:22.216Z,93576.31
2022-11-09T18:32:54.388Z,93579.81
2022-11-09T18:34:26.067Z,93582.22
2022-11-09T18:36:01.642Z,93580.91
2022-11-09T18:37:39.119Z,93583.13
2022-11-09T18:39:10.912Z,93583.19
2022-11-09T18:40:42.514Z,93572.22
2022-11-09T18:42:14.027Z,93577.88